| Date Time MST |
Temp °F |
RH % |
DewPt °F |
Wind mph |
Dir ° |
Gust mph |
Dir ° |
Press in Hg |
Solar W/m^2 |
Prec in |
|---|---|---|---|---|---|---|---|---|---|---|
| 2026-05-04 15:15 | 62.7 | 33.5 | 33.5 | 14.0 | 325 | 17.6 | 275 | 24.644 | 395.3 | 0.00 |
| 2026-05-04 15:10 | 61.5 | 33.4 | 32.5 | 15.4 | 278 | 19.2 | 287 | 24.650 | 323.4 | 0.00 |
| 2026-05-04 15:05 | 61.4 | 33.3 | 32.3 | 14.5 | 291 | 18.5 | 274 | 24.655 | 132.3 | 0.00 |
| 2026-05-04 15:00 | 61.7 | 33.3 | 32.5 | 15.7 | 287 | 21.1 | 289 | 24.657 | 155.8 | 0.00 |
| 2026-05-04 14:55 | 62.4 | 32.4 | 32.5 | 15.6 | 292 | 20.1 | 291 | 24.660 | 208.4 | 0.00 |
| 2026-05-04 14:50 | 62.9 | 32.3 | 32.8 | 14.5 | 282 | 17.1 | 266 | 24.663 | 258.3 | 0.00 |
| 2026-05-04 14:45 | 63.2 | 31.1 | 32.2 | 14.4 | 304 | 18.0 | 304 | 24.664 | 381.3 | 0.00 |
| 2026-05-04 14:40 | 62.9 | 30.8 | 31.7 | 12.2 | 293 | 17.5 | 293 | 24.664 | 287.7 | 0.00 |
| 2026-05-04 14:35 | 62.7 | 33.2 | 33.4 | 9.3 | 331 | 13.3 | 314 | 24.666 | 230.4 | 0.00 |
| 2026-05-04 14:30 | 62.7 | 32.1 | 32.5 | 12.7 | 315 | 17.5 | 314 | 24.668 | 236.1 | 0.00 |
| 2026-05-04 14:25 | 62.2 | 32.6 | 32.4 | 8.3 | 318 | 12.1 | 306 | 24.669 | 268.5 | 0.00 |
| 2026-05-04 14:20 | 62.3 | 36.0 | 35.0 | 7.7 | 271 | 10.3 | 257 | 24.672 | 302.0 | 0.00 |
| 2026-05-04 14:15 | 62.9 | 34.3 | 34.3 | 6.7 | 275 | 9.7 | 267 | 24.671 | 421.3 | 0.00 |
| 2026-05-04 14:10 | 62.8 | 34.4 | 34.3 | 4.2 | 260 | 8.4 | 247 | 24.671 | 750.8 | 0.00 |
| 2026-05-04 14:05 | 61.0 | 38.0 | 35.2 | 3.9 | 180 | 5.0 | 170 | 24.669 | 596.5 | 0.00 |
| 2026-05-04 14:00 | 60.3 | 41.4 | 36.7 | 3.7 | 176 | 10.1 | 187 | 24.669 | 266.0 | 0.00 |
| 2026-05-04 13:55 | 59.6 | 41.5 | 36.2 | 5.6 | 193 | 8.5 | 146 | 24.670 | 222.5 | 0.00 |
| 2026-05-04 13:50 | 58.7 | 43.4 | 36.5 | 7.7 | 142 | 12.1 | 148 | 24.673 | 168.7 | 0.00 |
| 2026-05-04 13:45 | 58.5 | 44.4 | 36.9 | 11.4 | 143 | 15.4 | 144 | 24.676 | 97.1 | 0.00 |
| 2026-05-04 13:40 | 59.0 | 43.6 | 36.9 | 11.7 | 168 | 19.4 | 216 | 24.683 | 50.3 | 0.00 |
| 2026-05-04 13:35 | 59.5 | 39.6 | 34.9 | 9.2 | 221 | 16.4 | 211 | 24.687 | 34.5 | 0.00 |
| 2026-05-04 13:30 | 59.7 | 37.9 | 34.0 | 7.5 | 151 | 16.4 | 57 | 24.687 | 29.3 | 0.00 |
| 2026-05-04 13:25 | 60.6 | 37.5 | 34.5 | 11.6 | 31 | 22.8 | 28 | 24.687 | 29.6 | 0.00 |
| 2026-05-04 13:20 | 60.8 | 33.3 | 31.8 | 10.1 | 52 | 14.7 | 43 | 24.686 | 37.4 | 0.00 |
| 2026-05-04 13:15 | 60.8 | 33.0 | 31.5 | 11.4 | 27 | 15.3 | 40 | 24.685 | 59.0 | 0.00 |
| 2026-05-04 13:10 | 60.9 | 34.3 | 32.6 | 12.8 | 30 | 17.9 | 36 | 24.683 | 90.1 | 0.00 |
| 2026-05-04 13:05 | 61.3 | 32.8 | 31.8 | 12.2 | 46 | 17.3 | 49 | 24.679 | 117.1 | 0.00 |
| 2026-05-04 13:00 | 62.0 | 32.3 | 32.0 | 14.1 | 43 | 20.5 | 20 | 24.678 | 139.8 | 0.00 |
| 2026-05-04 12:55 | 63.0 | 30.9 | 31.8 | 14.9 | 5 | 23.7 | 16 | 24.676 | 158.9 | 0.00 |
| 2026-05-04 12:50 | 63.0 | 28.3 | 29.7 | 12.3 | 23 | 17.7 | 353 | 24.674 | 186.5 | 0.00 |
| Date Time MST |
Temp °C |
RH % |
DewPt °C |
Wind m/s |
Dir ° |
Gust m/s |
Dir ° |
Press hPa |
Solar W/m^2 |
Prec mm |
|---|---|---|---|---|---|---|---|---|---|---|
| 2026-05-04 15:15 | 17.1 | 33.5 | 0.8 | 6.3 | 325 | 7.9 | 275 | 834.54 | 395.3 | 0.00 |
| 2026-05-04 15:10 | 16.4 | 33.4 | 0.3 | 6.9 | 278 | 8.6 | 287 | 834.74 | 323.4 | 0.00 |
| 2026-05-04 15:05 | 16.3 | 33.3 | 0.1 | 6.5 | 291 | 8.3 | 274 | 834.91 | 132.3 | 0.00 |
| 2026-05-04 15:00 | 16.5 | 33.3 | 0.3 | 7.0 | 287 | 9.4 | 289 | 834.98 | 155.8 | 0.00 |
| 2026-05-04 14:55 | 16.9 | 32.4 | 0.3 | 7.0 | 292 | 9.0 | 291 | 835.09 | 208.4 | 0.00 |
| 2026-05-04 14:50 | 17.2 | 32.3 | 0.5 | 6.5 | 282 | 7.7 | 266 | 835.17 | 258.3 | 0.00 |
| 2026-05-04 14:45 | 17.4 | 31.1 | 0.1 | 6.4 | 304 | 8.0 | 304 | 835.23 | 381.3 | 0.00 |
| 2026-05-04 14:40 | 17.2 | 30.8 | -0.2 | 5.4 | 293 | 7.8 | 293 | 835.21 | 287.7 | 0.00 |
| 2026-05-04 14:35 | 17.1 | 33.2 | 0.8 | 4.1 | 331 | 5.9 | 314 | 835.30 | 230.4 | 0.00 |
| 2026-05-04 14:30 | 17.1 | 32.1 | 0.3 | 5.7 | 315 | 7.8 | 314 | 835.36 | 236.1 | 0.00 |
| 2026-05-04 14:25 | 16.8 | 32.6 | 0.2 | 3.7 | 318 | 5.4 | 306 | 835.38 | 268.5 | 0.00 |
| 2026-05-04 14:20 | 16.8 | 36.0 | 1.6 | 3.4 | 271 | 4.6 | 257 | 835.51 | 302.0 | 0.00 |
| 2026-05-04 14:15 | 17.1 | 34.3 | 1.3 | 3.0 | 275 | 4.4 | 267 | 835.47 | 421.3 | 0.00 |
| 2026-05-04 14:10 | 17.1 | 34.4 | 1.3 | 1.9 | 260 | 3.8 | 247 | 835.45 | 750.8 | 0.00 |
| 2026-05-04 14:05 | 16.1 | 38.0 | 1.8 | 1.7 | 180 | 2.3 | 170 | 835.38 | 596.5 | 0.00 |
| 2026-05-04 14:00 | 15.7 | 41.4 | 2.6 | 1.7 | 176 | 4.5 | 187 | 835.38 | 266.0 | 0.00 |
| 2026-05-04 13:55 | 15.3 | 41.5 | 2.3 | 2.5 | 193 | 3.8 | 146 | 835.41 | 222.5 | 0.00 |
| 2026-05-04 13:50 | 14.9 | 43.4 | 2.5 | 3.5 | 142 | 5.4 | 148 | 835.53 | 168.7 | 0.00 |
| 2026-05-04 13:45 | 14.7 | 44.4 | 2.7 | 5.1 | 143 | 6.9 | 144 | 835.63 | 97.1 | 0.00 |
| 2026-05-04 13:40 | 15.0 | 43.6 | 2.7 | 5.2 | 168 | 8.7 | 216 | 835.87 | 50.3 | 0.00 |
| 2026-05-04 13:35 | 15.3 | 39.6 | 1.6 | 4.1 | 221 | 7.3 | 211 | 835.99 | 34.5 | 0.00 |
| 2026-05-04 13:30 | 15.4 | 37.9 | 1.1 | 3.4 | 151 | 7.3 | 57 | 835.98 | 29.3 | 0.00 |
| 2026-05-04 13:25 | 15.9 | 37.5 | 1.4 | 5.2 | 31 | 10.2 | 28 | 835.99 | 29.6 | 0.00 |
| 2026-05-04 13:20 | 16.0 | 33.3 | -0.1 | 4.5 | 52 | 6.6 | 43 | 835.98 | 37.4 | 0.00 |
| 2026-05-04 13:15 | 16.0 | 33.0 | -0.3 | 5.1 | 27 | 6.9 | 40 | 835.93 | 59.0 | 0.00 |
| 2026-05-04 13:10 | 16.1 | 34.3 | 0.3 | 5.7 | 30 | 8.0 | 36 | 835.86 | 90.1 | 0.00 |
| 2026-05-04 13:05 | 16.3 | 32.8 | -0.1 | 5.5 | 46 | 7.7 | 49 | 835.74 | 117.1 | 0.00 |
| 2026-05-04 13:00 | 16.7 | 32.3 | 0.0 | 6.3 | 43 | 9.2 | 20 | 835.68 | 139.8 | 0.00 |
| 2026-05-04 12:55 | 17.2 | 30.9 | -0.1 | 6.7 | 5 | 10.6 | 16 | 835.62 | 158.9 | 0.00 |
| 2026-05-04 12:50 | 17.2 | 28.3 | -1.3 | 5.5 | 23 | 7.9 | 353 | 835.54 | 186.5 | 0.00 |
Welcome to CIRA, below you will find links to specific areas of CIRA. All of them are about learning more about CIRA and what we do. Feel free to look around and get to know us better.









